Latest Weather Observations for Ouse

IDT60801

Issued at 10:02 am EST Monday 26 September 2016 (issued every 30 minutes, with the page automatically refreshed every 10 minutes)

About weather observations | Map of weather stations | Latest weather observations for TAS | Other Formats
Station Details ID: 095048 Name: OUSE FIRE STATION Lat: -42.48 Lon: 146.71 Height: 90.0 m
Data from the previous 72 hours. | See also: Recent months at Ouse
Date/Time
EST
Temp
°C
App
Temp
°C
Dew
Point
°C
Rel
Hum
%
Delta-T
°C
Wind Press
QNH
hPa
Press
MSL
hPa
Rain since
9am
mm
Dir  Spd
km/h
Gust
km/h
Spd
kts
Gust
kts
26/10:00am 10.4 7.8 4.3 66 2.7 ENE 7 9 4 5 1010.5 1010.6 0.0
26/09:30am 9.6 8.0 4.6 71 2.2 E 2 9 1 5 1010.9 1011.0 0.0
26/09:00am 8.2 6.8 3.5 72 2.0 CALM 0 0 0 0 1011.1 1011.2 0.0
26/08:30am 6.4 3.6 2.3 75 1.7 NNE 6 7 3 4 1011.2 1011.3 0.0
26/08:00am 5.4 3.4 2.1 79 1.3 NNE 2 6 1 3 1011.2 1011.3 0.0
26/07:30am 5.1 2.4 2.8 85 0.9 NNE 6 7 3 4 1011.4 1011.5 0.0
26/07:00am 2.4 0.7 1.8 96 0.2 CALM 0 0 0 0 1011.6 1011.7 0.0
26/06:30am 1.3 -0.5 0.9 97 0.1 CALM 0 0 0 0 1011.4 1011.5 0.0
26/06:00am 1.1 -0.9 0.2 94 0.3 CALM 0 0 0 0 1011.3 1011.4 0.0
26/05:30am 1.7 -0.2 0.5 92 0.4 CALM 0 6 0 3 1011.1 1011.2 0.0
26/05:00am 2.7 -0.4 1.2 90 0.6 N 7 11 4 6 1011.0 1011.1 0.0
26/04:30am 2.8 -0.6 1.8 93 0.4 N 9 13 5 7 1010.9 1011.0 0.0
26/04:00am 2.9 -0.5 1.7 92 0.5 N 9 11 5 6 1010.7 1010.8 0.0
26/03:30am 2.9 -0.2 1.4 90 0.6 NNW 7 9 4 5 1010.6 1010.7 0.0
26/03:00am 3.1 -0.3 1.9 92 0.5 N 9 13 5 7 1010.6 1010.7 0.0
26/02:30am 3.7 -0.1 1.9 88 0.7 N 11 13 6 7 1010.8 1010.9 0.0
26/02:00am 4.2 0.5 2.4 88 0.7 N 11 13 6 7 1010.8 1010.9 0.0
26/01:30am 3.8 -0.3 2.0 88 0.7 NNW 13 15 7 8 1010.9 1011.0 0.0
26/01:00am 4.0 -0.1 2.2 88 0.7 N 13 15 7 8 1011.1 1011.2 0.0
26/12:30am 4.4 1.1 2.4 87 0.8 N 9 11 5 6 1011.0 1011.1 0.0
26/12:00am 4.3 0.7 2.7 89 0.7 N 11 13 6 7 1011.1 1011.2 0.0
 
Date/Time
EST
Temp
°C
App
Temp
°C
Dew
Point
°C
Rel
Hum
%
Delta-T
°C
Wind Press
QNH
hPa
Press
MSL
hPa
Rain since
9am
mm
Dir  Spd
km/h
Gust
km/h
Spd
kts
Gust
kts
25/11:30pm 4.2 0.8 2.1 86 0.8 N 9 11 5 6 1010.9 1011.0 0.0
25/11:00pm 4.6 1.4 2.9 89 0.7 N 9 13 5 7 1011.1 1011.2 0.0
25/10:30pm 5.7 2.1 3.0 83 1.1 NNW 11 17 6 9 1011.0 1011.1 0.0
25/10:00pm 4.7 1.8 2.6 86 0.9 NNW 7 11 4 6 1011.1 1011.2 0.0
25/09:30pm 5.1 2.3 3.1 87 0.8 N 7 9 4 5 1011.0 1011.1 0.0
25/09:00pm 5.6 2.4 3.1 84 1.0 NNW 9 13 5 7 1010.6 1010.7 0.0
25/08:30pm 5.7 2.2 3.5 86 0.9 NNW 11 15 6 8 1010.5 1010.6 0.0
25/08:00pm 5.6 2.4 2.9 83 1.1 NNW 9 11 5 6 1010.3 1010.4 0.0
25/07:30pm 7.1 3.8 2.4 72 2.0 N 9 11 5 6 1009.9 1010.0 0.0
25/07:00pm 8.8 5.1 2.6 65 2.6 NW 11 15 6 8 1009.4 1009.5 0.0
25/06:30pm 9.8 4.5 2.9 62 3.0 WNW 20 30 11 16 1008.7 1008.8 0.0
25/06:00pm 10.5 5.7 2.4 57 3.5 WNW 17 28 9 15 1008.0 1008.1 0.0
25/05:30pm 11.5 7.2 3.0 56 3.7 NW 15 26 8 14 1007.6 1007.7 0.0
25/05:00pm 11.8 7.9 3.3 56 3.8 WNW 13 20 7 11 1007.2 1007.3 0.0
25/04:30pm 13.2 8.2 3.8 53 4.3 NW 19 26 10 14 1006.8 1006.9 0.0
25/04:00pm 12.8 8.3 4.0 55 4.0 WNW 17 24 9 13 1006.7 1006.8 0.0
25/03:30pm 12.4 7.8 3.9 56 3.8 W 17 28 9 15 1006.6 1006.7 0.0
25/03:15pm 11.2 4.7 4.7 64 3.0 WSW 28 46 15 25 1006.6 1006.7 0.0
25/03:00pm 14.0 9.1 4.0 51 4.6 WNW 19 28 10 15 1006.2 1006.3 0.0
25/02:30pm 14.6 9.5 4.3 50 4.8 WSW 20 32 11 17 1005.7 1005.8 0.0
25/02:00pm 13.8 9.4 4.7 54 4.2 WNW 17 24 9 13 1005.4 1005.5 0.0
25/01:30pm 13.4 7.7 2.6 48 4.8 W 22 33 12 18 1005.4 1005.5 0.0
25/01:00pm 13.1 6.5 4.0 54 4.2 WSW 28 37 15 20 1005.5 1005.6 0.0
25/12:30pm 13.2 7.8 4.6 56 4.0 WNW 22 35 12 19 1005.2 1005.3 0.0
25/12:00pm 13.6 8.3 5.0 56 4.0 W 22 37 12 20 1005.2 1005.3 0.0
25/11:30am 11.0 5.0 3.5 60 3.3 W 24 39 13 21 1005.4 1005.5 0.0
25/11:16am 12.3 6.2 3.0 53 4.1 WSW 24 48 13 26 1005.0 1005.1 0.0
25/11:00am 14.5 9.5 4.8 52 4.6 WSW 20 37 11 20 1004.6 1004.8 0.0
25/10:30am 13.9 8.2 4.8 54 4.2 SW 24 39 13 21 1004.5 1004.7 0.0
25/10:00am 11.7 5.8 3.7 58 3.6 SW 24 33 13 18 1004.5 1004.7 0.0
25/09:30am 12.6 8.2 4.6 58 3.7 WNW 17 32 9 17 1004.0 1004.1 0.0
25/09:00am 12.5 8.8 4.7 59 3.6 W 13 20 7 11 1003.8 1003.9 0.0
25/08:30am 12.1 8.3 4.1 58 3.6 W 13 22 7 12 1003.6 1003.7 0.0
25/08:00am 11.1 8.7 5.2 67 2.7 WNW 7 13 4 7 1003.4 1003.5 0.0
25/07:30am 11.0 6.3 5.1 67 2.7 WNW 19 28 10 15 1003.0 1003.1 0.0
25/07:00am 11.1 9.0 6.5 73 2.2 WNW 7 11 4 6 1002.3 1002.4 0.0
25/06:30am 11.5 7.7 6.0 69 2.6 WNW 15 26 8 14 1002.0 1002.1 0.0
25/06:00am 11.6 8.7 6.3 70 2.5 WNW 11 20 6 11 1001.3 1001.4 0.0
25/05:30am 11.9 7.6 7.0 72 2.4 NW 19 30 10 16 1000.5 1000.6 0.0
25/05:00am 9.2 7.3 7.6 90 0.8 NNW 7 9 4 5 1000.2 1000.3 0.0
25/04:30am 9.0 7.8 8.1 94 0.4 NW 4 9 2 5 1000.0 1000.1 0.0
25/04:00am 8.9 8.4 7.8 93 0.5 CALM 0 0 0 0 999.8 999.9 0.0
25/03:30am 9.1 8.6 7.7 91 0.7 CALM 0 0 0 0 999.9 1000.0 0.0
25/03:00am 9.3 7.6 7.6 89 0.8 NNW 6 7 3 4 1000.5 1000.6 0.0
25/02:30am 9.4 8.9 7.7 89 0.8 CALM 0 0 0 0 1000.9 1001.0 0.0
25/02:00am 9.2 8.6 7.5 89 0.8 CALM 0 0 0 0 1000.9 1001.0 0.0
25/01:30am 9.2 8.6 7.2 87 0.9 CALM 0 0 0 0 1001.3 1001.4 0.0
25/01:00am 9.2 8.5 6.8 85 1.1 CALM 0 0 0 0 1001.4 1001.5 0.0
25/12:30am 9.5 8.7 6.6 82 1.4 CALM 0 0 0 0 1001.8 1001.9 0.0
25/12:00am 10.0 7.9 6.5 79 1.7 N 7 9 4 5 1002.1 1002.2 0.0
 
Date/Time
EST
Temp
°C
App
Temp
°C
Dew
Point
°C
Rel
Hum
%
Delta-T
°C
Wind Press
QNH
hPa
Press
MSL
hPa
Rain since
9am
mm
Dir  Spd
km/h
Gust
km/h
Spd
kts
Gust
kts
24/11:30pm 10.5 8.3 6.3 75 2.0 NW 7 9 4 5 1002.3 1002.4 0.0
24/11:00pm 10.9 7.9 6.1 72 2.3 N 11 13 6 7 1002.7 1002.8 0.0
24/10:30pm 11.5 8.6 6.6 72 2.3 N 11 13 6 7 1003.0 1003.1 0.0
24/10:00pm 12.7 9.5 7.0 68 2.8 NNW 13 22 7 12 1003.2 1003.3 0.0
24/09:30pm 11.3 9.7 8.0 80 1.6 NNW 6 7 3 4 1003.3 1003.4 0.0
24/09:00pm 12.3 10.0 7.6 73 2.3 NNW 9 11 5 6 1003.5 1003.6 0.0
24/08:30pm 11.6 9.5 8.3 80 1.6 N 9 13 5 7 1003.7 1003.8 0.0
24/08:00pm 12.7 10.5 7.8 72 2.4 N 9 15 5 8 1003.6 1003.7 0.0
24/07:30pm 14.0 11.5 8.0 67 3.0 NNW 11 15 6 8 1003.6 1003.7 0.0
24/07:00pm 15.0 12.2 8.5 65 3.3 N 13 24 7 13 1003.5 1003.6 0.0
24/06:30pm 15.3 12.2 8.8 65 3.3 N 15 20 8 11 1003.4 1003.5 0.0
24/06:00pm 15.3 13.0 9.0 66 3.3 N 11 19 6 10 1003.3 1003.4 0.0
24/05:30pm 16.8 14.5 9.0 60 4.0 N 11 17 6 9 1003.3 1003.4 0.0
24/05:00pm 17.4 14.7 9.1 58 4.3 N 13 20 7 11 1003.3 1003.4 0.0
24/04:30pm 17.5 15.7 9.4 59 4.3 N 9 15 5 8 1003.2 1003.3 0.0
24/04:00pm 18.3 16.5 9.6 57 4.6 NNW 9 15 5 8 1003.3 1003.4 0.0
24/03:30pm 18.7 16.5 9.2 54 5.0 N 11 19 6 10 1003.5 1003.6 0.0
24/03:00pm 19.1 19.2 12.6 66 3.7 SSE 4 7 2 4 1003.9 1004.0 0.0
24/02:30pm 17.6 16.5 10.5 63 3.8 S 7 11 4 6 1004.4 1004.6 0.0
24/02:00pm 17.7 17.0 10.1 61 4.1 ENE 4 9 2 5 1004.8 1004.9 0.0
24/01:30pm 17.1 15.6 10.5 65 3.5 S 9 15 5 8 1005.2 1005.3 0.0
24/01:00pm 17.0 15.1 10.4 65 3.5 SSW 11 13 6 7 1005.7 1005.8 0.0
24/12:30pm 17.0 15.7 11.1 68 3.2 S 9 13 5 7 1006.3 1006.4 0.0
24/12:00pm 16.5 14.5 10.1 66 3.4 SSE 11 17 6 9 1006.7 1006.8 0.0
24/11:30am 15.2 12.9 8.9 66 3.2 SE 11 15 6 8 1007.2 1007.3 0.0
24/11:00am 13.7 12.2 9.2 74 2.3 SE 7 11 4 6 1007.9 1008.0 0.0
24/10:30am 13.2 11.6 8.7 74 2.3 SSE 7 11 4 6 1008.5 1008.6 0.0
24/10:00am 12.1 10.5 8.8 80 1.7 SSE 7 11 4 6 1009.2 1009.3 0.0
24/09:30am 11.0 9.3 7.7 80 1.6 SE 6 9 3 5 1009.7 1009.8 0.0
24/09:00am 10.1 9.6 7.9 86 1.1 CALM 0 7 0 4 1010.2 1010.3 0.2
24/08:30am 8.2 7.5 7.0 92 0.6 CALM 0 0 0 0 1010.7 1010.8 0.2
24/08:00am 7.2 5.8 7.1 99 0.0 NNW 4 6 2 3 1010.8 1010.9 0.0
24/07:30am 6.4 5.6 6.3 99 0.0 CALM 0 0 0 0 1011.0 1011.1 0.0
24/07:00am 5.6 4.2 5.6 100 0.0 NNW 2 7 1 4 1011.3 1011.4 0.0
24/06:30am 4.6 3.4 4.6 100 0.0 CALM 0 0 0 0 1011.3 1011.4 0.0
24/06:00am 4.2 2.9 4.1 99 0.0 CALM 0 0 0 0 1011.3 1011.4 0.0
24/05:30am 4.1 2.0 4.0 99 0.0 NNW 4 9 2 5 1011.2 1011.3 0.0
24/05:00am 4.5 3.3 4.4 99 0.0 CALM 0 0 0 0 1011.1 1011.2 0.0
24/04:30am 4.9 3.7 4.8 99 0.0 CALM 0 0 0 0 1011.2 1011.3 0.0
24/04:00am 5.2 4.1 5.1 99 0.0 CALM 0 0 0 0 1011.5 1011.6 0.0
24/03:30am 5.5 4.5 5.4 99 0.0 CALM 0 0 0 0 1011.8 1011.9 0.0
24/03:00am 5.8 4.8 5.7 99 0.0 CALM 0 0 0 0 1012.0 1012.1 0.0
24/02:30am 6.2 4.5 6.1 99 0.0 NNW 4 6 2 3 1012.2 1012.3 0.0
24/02:00am 6.4 4.8 6.3 99 0.0 NNW 4 7 2 4 1012.5 1012.6 0.0
24/01:30am 6.2 5.3 6.1 99 0.0 CALM 0 6 0 3 1012.7 1012.8 0.0
24/01:00am 6.3 5.4 6.0 98 0.1 CALM 0 0 0 0 1012.7 1012.8 0.0
24/12:30am 6.8 6.0 6.4 97 0.2 CALM 0 0 0 0 1012.7 1012.8 0.0
24/12:00am 7.6 6.8 6.5 93 0.5 CALM 0 0 0 0 1012.8 1012.9 0.0
 
Date/Time
EST
Temp
°C
App
Temp
°C
Dew
Point
°C
Rel
Hum
%
Delta-T
°C
Wind Press
QNH
hPa
Press
MSL
hPa
Rain since
9am
mm
Dir  Spd
km/h
Gust
km/h
Spd
kts
Gust
kts
23/11:30pm 8.5 7.9 7.3 92 0.6 CALM 0 0 0 0 1013.0 1013.1 0.0
23/11:00pm 9.2 7.4 7.2 87 0.9 S 6 9 3 5 1013.1 1013.2 0.0
23/10:30pm 10.4 8.6 7.3 81 1.5 SSE 6 9 3 5 1013.2 1013.3 0.0
23/10:00pm 12.1 9.9 8.0 76 2.0 SE 9 15 5 8 1013.3 1013.4 0.0
23/09:30pm 12.9 10.0 8.2 73 2.3 SE 13 20 7 11 1013.2 1013.3 0.0
23/09:00pm 12.9 11.0 9.0 77 2.0 SSE 9 15 5 8 1013.4 1013.5 0.0
23/08:30pm 13.4 9.5 8.5 72 2.5 SE 19 22 10 12 1013.3 1013.4 0.0
23/08:00pm 13.4 9.9 8.7 73 2.4 SE 17 24 9 13 1013.2 1013.3 0.0
23/07:30pm 13.7 9.9 9.0 73 2.4 SSE 19 26 10 14 1013.0 1013.1 0.0
23/07:00pm 14.3 11.0 9.5 73 2.5 S 17 24 9 13 1012.8 1012.9 0.0
23/06:30pm 14.2 11.6 9.4 73 2.5 S 13 20 7 11 1012.4 1012.5 0.0
23/06:00pm 14.7 12.5 9.5 71 2.7 S 11 19 6 10 1012.2 1012.3 0.0
23/05:30pm 16.2 14.3 9.2 63 3.6 ESE 9 15 5 8 1012.0 1012.1 0.0
23/05:00pm 17.7 15.2 9.6 59 4.3 ESE 13 19 7 10 1012.0 1012.1 0.0
23/04:30pm 17.7 14.5 8.6 55 4.7 SSE 15 20 8 11 1012.0 1012.1 0.0
23/04:00pm 18.1 15.3 8.4 53 5.0 SSE 13 19 7 10 1012.0 1012.1 0.0
23/03:30pm 17.9 14.9 7.9 52 5.1 SSE 13 17 7 9 1012.2 1012.3 0.0
23/03:00pm 17.8 15.3 8.1 53 5.0 SSE 11 17 6 9 1012.5 1012.6 0.0
23/02:30pm 17.9 15.1 8.5 54 4.9 SSE 13 20 7 11 1012.9 1013.0 0.0
23/02:00pm 17.6 14.9 9.0 57 4.5 SSE 13 19 7 10 1013.2 1013.3 0.0
23/01:30pm 17.3 14.2 8.7 57 4.4 SSE 15 20 8 11 1013.6 1013.8 0.0
23/01:00pm 17.3 14.5 8.7 57 4.4 S 13 17 7 9 1014.0 1014.2 0.0
23/12:30pm 16.9 14.4 9.6 62 3.8 S 13 19 7 10 1014.5 1014.7 0.0
23/12:00pm 16.0 13.8 9.4 65 3.4 SSE 11 15 6 8 1014.9 1015.1 0.0
23/11:30am 15.9 13.8 9.8 67 3.2 SSE 11 17 6 9 1015.4 1015.6 0.0
23/11:00am 15.1 13.4 9.9 71 2.7 SSE 9 15 5 8 1015.8 1016.0 0.0
23/10:30am 15.2 14.0 10.4 73 2.5 SSE 7 11 4 6 1016.4 1016.5 0.0

Other Formats:

Comma delimited format used in spreadsheet applications
http://www.bom.gov.au/fwo/IDT60801/IDT60801.94957.axf

JavaScript Object Notation format (JSON) in row-major order
http://www.bom.gov.au/fwo/IDT60801/IDT60801.94957.json